sensor_id;sensor_type;location;lat;lon;timestamp;temperature;humidity
48454;DHT22;34261;55.678;12.464;2023-06-19T00:00:43;17.60;99.90
48454;DHT22;34261;55.678;12.464;2023-06-19T00:03:09;17.70;99.90
48454;DHT22;34261;55.678;12.464;2023-06-19T00:05:34;17.70;99.90
48454;DHT22;34261;55.678;12.464;2023-06-19T00:08:00;17.70;99.90
48454;DHT22;34261;55.678;12.464;2023-06-19T00:10:25;17.60;99.90
48454;DHT22;34261;55.678;12.464;2023-06-19T00:12:51;17.60;99.90
48454;DHT22;34261;55.678;12.464;2023-06-19T00:15:16;17.60;99.90
48454;DHT22;34261;55.678;12.464;2023-06-19T00:17:42;17.60;99.90
48454;DHT22;34261;55.678;12.464;2023-06-19T00:20:07;17.60;99.90
48454;DHT22;34261;55.678;12.464;2023-06-19T00:22:33;17.60;99.90
48454;DHT22;34261;55.678;12.464;2023-06-19T00:24:59;17.50;99.90
48454;DHT22;34261;55.678;12.464;2023-06-19T00:27:24;17.50;99.90
48454;DHT22;34261;55.678;12.464;2023-06-19T00:29:50;17.40;99.90
48454;DHT22;34261;55.678;12.464;2023-06-19T00:32:16;17.30;99.90
48454;DHT22;34261;55.678;12.464;2023-06-19T00:34:41;17.30;99.90
48454;DHT22;34261;55.678;12.464;2023-06-19T00:37:08;17.30;99.90
48454;DHT22;34261;55.678;12.464;2023-06-19T00:39:35;17.20;99.90
48454;DHT22;34261;55.678;12.464;2023-06-19T00:42:00;17.20;99.90
48454;DHT22;34261;55.678;12.464;2023-06-19T00:44:26;17.20;99.90
48454;DHT22;34261;55.678;12.464;2023-06-19T00:46:55;17.10;99.90
48454;DHT22;34261;55.678;12.464;2023-06-19T00:49:21;17.10;99.90
48454;DHT22;34261;55.678;12.464;2023-06-19T00:51:47;17.00;99.90
48454;DHT22;34261;55.678;12.464;2023-06-19T00:54:12;17.00;99.90
48454;DHT22;34261;55.678;12.464;2023-06-19T00:56:38;16.90;99.90
48454;DHT22;34261;55.678;12.464;2023-06-19T00:59:06;16.90;99.90
48454;DHT22;34261;55.678;12.464;2023-06-19T01:01:37;16.90;99.90
48454;DHT22;34261;55.678;12.464;2023-06-19T01:04:06;16.90;99.90
48454;DHT22;34261;55.678;12.464;2023-06-19T01:06:32;16.90;99.90
48454;DHT22;34261;55.678;12.464;2023-06-19T01:09:08;16.90;99.90
48454;DHT22;34261;55.678;12.464;2023-06-19T01:11:44;16.90;99.90
48454;DHT22;34261;55.678;12.464;2023-06-19T01:14:13;16.80;99.90
48454;DHT22;34261;55.678;12.464;2023-06-19T01:16:39;16.70;99.90
48454;DHT22;34261;55.678;12.464;2023-06-19T01:19:05;16.80;99.90
48454;DHT22;34261;55.678;12.464;2023-06-19T01:21:34;16.70;99.90
48454;DHT22;34261;55.678;12.464;2023-06-19T01:24:02;16.70;99.90
48454;DHT22;34261;55.678;12.464;2023-06-19T01:26:28;16.60;99.90
48454;DHT22;34261;55.678;12.464;2023-06-19T01:28:53;16.60;99.90
48454;DHT22;34261;55.678;12.464;2023-06-19T01:31:20;16.60;99.90
48454;DHT22;34261;55.678;12.464;2023-06-19T01:33:50;16.50;99.90
48454;DHT22;34261;55.678;12.464;2023-06-19T01:36:18;16.50;99.90
48454;DHT22;34261;55.678;12.464;2023-06-19T01:38:44;16.50;99.90
48454;DHT22;34261;55.678;12.464;2023-06-19T01:41:10;16.50;99.90
48454;DHT22;34261;55.678;12.464;2023-06-19T01:43:36;16.50;99.90
48454;DHT22;34261;55.678;12.464;2023-06-19T01:46:02;16.60;99.90
48454;DHT22;34261;55.678;12.464;2023-06-19T01:48:30;16.60;99.90
48454;DHT22;34261;55.678;12.464;2023-06-19T01:50:56;16.60;99.90
48454;DHT22;34261;55.678;12.464;2023-06-19T01:53:21;16.60;99.90
48454;DHT22;34261;55.678;12.464;2023-06-19T01:55:47;16.60;99.90
48454;DHT22;34261;55.678;12.464;2023-06-19T01:58:12;16.60;99.90
48454;DHT22;34261;55.678;12.464;2023-06-19T02:00:41;16.60;99.90
48454;DHT22;34261;55.678;12.464;2023-06-19T02:03:07;16.60;99.90
48454;DHT22;34261;55.678;12.464;2023-06-19T02:05:32;16.60;99.90
48454;DHT22;34261;55.678;12.464;2023-06-19T02:07:58;16.50;99.90
48454;DHT22;34261;55.678;12.464;2023-06-19T02:10:26;16.50;99.90
48454;DHT22;34261;55.678;12.464;2023-06-19T02:12:52;16.50;99.90
48454;DHT22;34261;55.678;12.464;2023-06-19T02:15:17;16.40;99.90
48454;DHT22;34261;55.678;12.464;2023-06-19T02:17:43;16.40;99.90
48454;DHT22;34261;55.678;12.464;2023-06-19T02:20:09;16.40;99.90
48454;DHT22;34261;55.678;12.464;2023-06-19T02:22:39;16.40;99.90
48454;DHT22;34261;55.678;12.464;2023-06-19T02:25:07;16.40;99.90
48454;DHT22;34261;55.678;12.464;2023-06-19T02:27:35;16.50;99.90
48454;DHT22;34261;55.678;12.464;2023-06-19T02:30:01;16.50;99.90
48454;DHT22;34261;55.678;12.464;2023-06-19T02:32:26;16.50;99.90
48454;DHT22;34261;55.678;12.464;2023-06-19T02:34:52;16.50;99.90
48454;DHT22;34261;55.678;12.464;2023-06-19T02:37:17;16.60;99.90
48454;DHT22;34261;55.678;12.464;2023-06-19T02:39:42;16.60;99.90
48454;DHT22;34261;55.678;12.464;2023-06-19T02:42:11;16.70;99.90
48454;DHT22;34261;55.678;12.464;2023-06-19T02:44:40;16.70;99.90
48454;DHT22;34261;55.678;12.464;2023-06-19T02:47:05;16.80;99.90
48454;DHT22;34261;55.678;12.464;2023-06-19T02:49:31;16.80;99.90
48454;DHT22;34261;55.678;12.464;2023-06-19T02:51:57;16.80;99.90
48454;DHT22;34261;55.678;12.464;2023-06-19T02:54:22;16.90;99.90
48454;DHT22;34261;55.678;12.464;2023-06-19T02:56:47;17.00;99.90
48454;DHT22;34261;55.678;12.464;2023-06-19T02:59:13;17.00;99.90
48454;DHT22;34261;55.678;12.464;2023-06-19T03:01:38;17.00;99.90
48454;DHT22;34261;55.678;12.464;2023-06-19T03:04:04;17.00;99.90
48454;DHT22;34261;55.678;12.464;2023-06-19T03:06:29;17.00;99.90
48454;DHT22;34261;55.678;12.464;2023-06-19T03:08:56;17.10;99.90
48454;DHT22;34261;55.678;12.464;2023-06-19T03:11:21;17.10;99.90
48454;DHT22;34261;55.678;12.464;2023-06-19T03:13:50;17.20;99.90
48454;DHT22;34261;55.678;12.464;2023-06-19T03:16:19;17.20;99.90
48454;DHT22;34261;55.678;12.464;2023-06-19T03:18:45;17.20;99.90
48454;DHT22;34261;55.678;12.464;2023-06-19T03:21:11;17.30;99.90
48454;DHT22;34261;55.678;12.464;2023-06-19T03:23:37;17.30;99.90
48454;DHT22;34261;55.678;12.464;2023-06-19T03:26:02;17.30;99.90
48454;DHT22;34261;55.678;12.464;2023-06-19T03:28:28;17.40;99.90
48454;DHT22;34261;55.678;12.464;2023-06-19T03:30:54;17.40;99.90
48454;DHT22;34261;55.678;12.464;2023-06-19T03:33:19;17.40;99.90
48454;DHT22;34261;55.678;12.464;2023-06-19T03:35:45;17.40;99.90
48454;DHT22;34261;55.678;12.464;2023-06-19T03:38:10;17.50;99.90
48454;DHT22;34261;55.678;12.464;2023-06-19T03:40:36;17.50;99.90
48454;DHT22;34261;55.678;12.464;2023-06-19T03:43:01;17.50;99.90
48454;DHT22;34261;55.678;12.464;2023-06-19T03:45:26;17.60;99.90
48454;DHT22;34261;55.678;12.464;2023-06-19T03:47:52;17.60;99.90
48454;DHT22;34261;55.678;12.464;2023-06-19T03:50:18;17.60;99.90
48454;DHT22;34261;55.678;12.464;2023-06-19T03:52:43;17.60;99.90
48454;DHT22;34261;55.678;12.464;2023-06-19T03:55:09;17.70;99.90
48454;DHT22;34261;55.678;12.464;2023-06-19T03:57:34;17.70;99.90
48454;DHT22;34261;55.678;12.464;2023-06-19T04:00:00;17.70;99.90
48454;DHT22;34261;55.678;12.464;2023-06-19T04:02:25;17.80;99.90
48454;DHT22;34261;55.678;12.464;2023-06-19T04:04:51;17.80;99.90
48454;DHT22;34261;55.678;12.464;2023-06-19T04:07:16;17.90;99.90
48454;DHT22;34261;55.678;12.464;2023-06-19T04:09:42;17.90;99.90
48454;DHT22;34261;55.678;12.464;2023-06-19T04:12:07;18.00;99.90
48454;DHT22;34261;55.678;12.464;2023-06-19T04:14:33;18.00;99.90
48454;DHT22;34261;55.678;12.464;2023-06-19T04:16:58;18.10;99.90
48454;DHT22;34261;55.678;12.464;2023-06-19T04:19:25;18.20;99.90
48454;DHT22;34261;55.678;12.464;2023-06-19T04:21:50;18.30;99.90
48454;DHT22;34261;55.678;12.464;2023-06-19T04:24:16;18.30;99.90
48454;DHT22;34261;55.678;12.464;2023-06-19T04:26:41;18.40;99.90
48454;DHT22;34261;55.678;12.464;2023-06-19T04:29:07;18.40;99.90
48454;DHT22;34261;55.678;12.464;2023-06-19T04:31:33;18.40;99.90
48454;DHT22;34261;55.678;12.464;2023-06-19T04:33:58;18.60;99.90
48454;DHT22;34261;55.678;12.464;2023-06-19T04:36:24;18.60;99.90
48454;DHT22;34261;55.678;12.464;2023-06-19T04:38:49;18.70;99.90
48454;DHT22;34261;55.678;12.464;2023-06-19T04:41:18;18.80;99.90
48454;DHT22;34261;55.678;12.464;2023-06-19T04:43:43;18.80;99.90
48454;DHT22;34261;55.678;12.464;2023-06-19T04:46:09;18.80;99.90
48454;DHT22;34261;55.678;12.464;2023-06-19T04:48:34;18.90;99.90
48454;DHT22;34261;55.678;12.464;2023-06-19T04:51:02;18.90;99.90
48454;DHT22;34261;55.678;12.464;2023-06-19T04:53:27;19.00;99.90
48454;DHT22;34261;55.678;12.464;2023-06-19T04:55:53;19.00;99.90
48454;DHT22;34261;55.678;12.464;2023-06-19T04:58:21;19.10;99.90
48454;DHT22;34261;55.678;12.464;2023-06-19T05:00:47;19.10;99.90
48454;DHT22;34261;55.678;12.464;2023-06-19T05:03:17;19.10;99.90
48454;DHT22;34261;55.678;12.464;2023-06-19T05:05:43;19.10;99.90
48454;DHT22;34261;55.678;12.464;2023-06-19T05:08:09;19.20;99.90
48454;DHT22;34261;55.678;12.464;2023-06-19T05:10:34;19.30;99.90
48454;DHT22;34261;55.678;12.464;2023-06-19T05:13:01;19.50;99.90
48454;DHT22;34261;55.678;12.464;2023-06-19T05:15:28;19.60;99.90
48454;DHT22;34261;55.678;12.464;2023-06-19T05:17:55;19.70;99.90
48454;DHT22;34261;55.678;12.464;2023-06-19T05:20:21;19.70;99.90
48454;DHT22;34261;55.678;12.464;2023-06-19T05:22:46;19.80;99.90
48454;DHT22;34261;55.678;12.464;2023-06-19T05:25:11;19.90;99.90
48454;DHT22;34261;55.678;12.464;2023-06-19T05:27:37;20.00;99.90
48454;DHT22;34261;55.678;12.464;2023-06-19T05:30:06;20.00;99.90
48454;DHT22;34261;55.678;12.464;2023-06-19T05:32:31;19.90;99.90
48454;DHT22;34261;55.678;12.464;2023-06-19T05:34:58;20.00;99.90
48454;DHT22;34261;55.678;12.464;2023-06-19T05:37:23;20.10;99.90
48454;DHT22;34261;55.678;12.464;2023-06-19T05:39:49;20.10;99.90
48454;DHT22;34261;55.678;12.464;2023-06-19T05:42:15;20.10;99.90
48454;DHT22;34261;55.678;12.464;2023-06-19T05:44:41;20.00;99.90
48454;DHT22;34261;55.678;12.464;2023-06-19T05:47:13;20.00;99.90
48454;DHT22;34261;55.678;12.464;2023-06-19T05:49:39;20.10;99.90
48454;DHT22;34261;55.678;12.464;2023-06-19T05:52:09;20.10;99.90
48454;DHT22;34261;55.678;12.464;2023-06-19T05:54:37;20.00;99.90
48454;DHT22;34261;55.678;12.464;2023-06-19T05:57:03;20.00;99.90
48454;DHT22;34261;55.678;12.464;2023-06-19T05:59:28;20.00;99.90
48454;DHT22;34261;55.678;12.464;2023-06-19T06:01:54;20.10;99.90
48454;DHT22;34261;55.678;12.464;2023-06-19T06:04:20;20.20;99.90
48454;DHT22;34261;55.678;12.464;2023-06-19T06:06:49;20.30;99.90
48454;DHT22;34261;55.678;12.464;2023-06-19T06:09:14;20.40;99.90
48454;DHT22;34261;55.678;12.464;2023-06-19T06:11:41;20.60;99.90
48454;DHT22;34261;55.678;12.464;2023-06-19T06:14:07;20.70;99.90
48454;DHT22;34261;55.678;12.464;2023-06-19T06:16:32;20.90;99.90
48454;DHT22;34261;55.678;12.464;2023-06-19T06:18:57;20.90;99.90
48454;DHT22;34261;55.678;12.464;2023-06-19T06:21:24;20.90;99.90
48454;DHT22;34261;55.678;12.464;2023-06-19T06:23:49;21.00;99.90
48454;DHT22;34261;55.678;12.464;2023-06-19T06:26:15;21.10;99.90
48454;DHT22;34261;55.678;12.464;2023-06-19T06:28:40;21.20;99.90
48454;DHT22;34261;55.678;12.464;2023-06-19T06:31:06;21.30;99.90
48454;DHT22;34261;55.678;12.464;2023-06-19T06:33:32;21.30;99.90
48454;DHT22;34261;55.678;12.464;2023-06-19T06:35:58;21.30;99.90
48454;DHT22;34261;55.678;12.464;2023-06-19T06:38:23;21.30;99.90
48454;DHT22;34261;55.678;12.464;2023-06-19T06:40:49;21.20;99.90
48454;DHT22;34261;55.678;12.464;2023-06-19T06:43:14;21.30;99.90
48454;DHT22;34261;55.678;12.464;2023-06-19T06:45:40;21.30;99.90
48454;DHT22;34261;55.678;12.464;2023-06-19T06:48:07;21.50;99.90
48454;DHT22;34261;55.678;12.464;2023-06-19T06:50:33;21.60;99.90
48454;DHT22;34261;55.678;12.464;2023-06-19T06:52:59;21.80;99.90
48454;DHT22;34261;55.678;12.464;2023-06-19T06:55:25;22.10;99.90
48454;DHT22;34261;55.678;12.464;2023-06-19T06:57:50;22.30;99.90
48454;DHT22;34261;55.678;12.464;2023-06-19T07:00:16;22.40;99.90
48454;DHT22;34261;55.678;12.464;2023-06-19T07:02:43;22.50;99.90
48454;DHT22;34261;55.678;12.464;2023-06-19T07:05:09;22.60;99.90
48454;DHT22;34261;55.678;12.464;2023-06-19T07:07:35;22.60;99.90
48454;DHT22;34261;55.678;12.464;2023-06-19T07:10:01;22.60;99.90
48454;DHT22;34261;55.678;12.464;2023-06-19T07:12:26;22.70;99.90
48454;DHT22;34261;55.678;12.464;2023-06-19T07:14:55;22.90;99.90
48454;DHT22;34261;55.678;12.464;2023-06-19T07:17:20;23.10;99.90
48454;DHT22;34261;55.678;12.464;2023-06-19T07:19:46;23.30;99.90
48454;DHT22;34261;55.678;12.464;2023-06-19T07:22:11;23.30;99.90
48454;DHT22;34261;55.678;12.464;2023-06-19T07:24:37;23.20;99.90
48454;DHT22;34261;55.678;12.464;2023-06-19T07:27:03;23.00;99.90
48454;DHT22;34261;55.678;12.464;2023-06-19T07:29:28;22.90;99.90
48454;DHT22;34261;55.678;12.464;2023-06-19T07:31:54;22.80;99.90
48454;DHT22;34261;55.678;12.464;2023-06-19T07:34:19;22.70;99.90
48454;DHT22;34261;55.678;12.464;2023-06-19T07:36:45;22.70;99.90
48454;DHT22;34261;55.678;12.464;2023-06-19T07:39:10;22.70;99.90
48454;DHT22;34261;55.678;12.464;2023-06-19T07:41:36;22.70;99.90
48454;DHT22;34261;55.678;12.464;2023-06-19T07:44:01;23.00;99.90
48454;DHT22;34261;55.678;12.464;2023-06-19T07:46:27;23.00;99.90
48454;DHT22;34261;55.678;12.464;2023-06-19T07:48:52;23.30;99.90
48454;DHT22;34261;55.678;12.464;2023-06-19T07:51:18;23.60;99.90
48454;DHT22;34261;55.678;12.464;2023-06-19T07:53:43;23.40;99.90
48454;DHT22;34261;55.678;12.464;2023-06-19T07:56:09;23.20;99.90
48454;DHT22;34261;55.678;12.464;2023-06-19T07:58:34;23.20;99.90
48454;DHT22;34261;55.678;12.464;2023-06-19T08:01:00;22.90;99.90
48454;DHT22;34261;55.678;12.464;2023-06-19T08:03:25;22.80;99.90
48454;DHT22;34261;55.678;12.464;2023-06-19T08:05:51;22.70;99.90
48454;DHT22;34261;55.678;12.464;2023-06-19T08:08:16;23.10;99.90
48454;DHT22;34261;55.678;12.464;2023-06-19T08:10:42;23.50;99.90
48454;DHT22;34261;55.678;12.464;2023-06-19T08:13:07;23.70;99.90
48454;DHT22;34261;55.678;12.464;2023-06-19T08:15:33;23.60;99.90
48454;DHT22;34261;55.678;12.464;2023-06-19T08:17:58;23.50;99.90
48454;DHT22;34261;55.678;12.464;2023-06-19T08:20:23;23.60;99.90
48454;DHT22;34261;55.678;12.464;2023-06-19T08:22:49;23.90;99.90
48454;DHT22;34261;55.678;12.464;2023-06-19T08:25:15;24.30;99.90
48454;DHT22;34261;55.678;12.464;2023-06-19T08:27:40;24.70;99.90
48454;DHT22;34261;55.678;12.464;2023-06-19T08:30:06;24.80;99.90
48454;DHT22;34261;55.678;12.464;2023-06-19T08:32:32;25.10;99.90
48454;DHT22;34261;55.678;12.464;2023-06-19T08:34:58;25.20;99.90
48454;DHT22;34261;55.678;12.464;2023-06-19T08:37:23;25.20;99.90
48454;DHT22;34261;55.678;12.464;2023-06-19T08:39:49;25.00;99.90
48454;DHT22;34261;55.678;12.464;2023-06-19T08:42:14;24.90;99.90
48454;DHT22;34261;55.678;12.464;2023-06-19T08:44:40;25.10;99.90
48454;DHT22;34261;55.678;12.464;2023-06-19T08:47:05;25.30;99.90
48454;DHT22;34261;55.678;12.464;2023-06-19T08:49:32;25.50;99.90
48454;DHT22;34261;55.678;12.464;2023-06-19T08:51:58;25.50;99.90
48454;DHT22;34261;55.678;12.464;2023-06-19T08:54:24;25.60;99.90
48454;DHT22;34261;55.678;12.464;2023-06-19T08:56:50;25.60;99.90
48454;DHT22;34261;55.678;12.464;2023-06-19T08:59:19;25.50;99.70
48454;DHT22;34261;55.678;12.464;2023-06-19T09:01:48;25.30;99.70
48454;DHT22;34261;55.678;12.464;2023-06-19T09:04:17;25.40;99.90
48454;DHT22;34261;55.678;12.464;2023-06-19T09:06:56;25.40;99.80
48454;DHT22;34261;55.678;12.464;2023-06-19T09:09:22;25.30;99.30
48454;DHT22;34261;55.678;12.464;2023-06-19T09:12:01;25.40;99.80
48454;DHT22;34261;55.678;12.464;2023-06-19T09:14:37;25.70;99.90
48454;DHT22;34261;55.678;12.464;2023-06-19T09:17:03;25.80;99.10
48454;DHT22;34261;55.678;12.464;2023-06-19T09:19:29;25.40;98.90
48454;DHT22;34261;55.678;12.464;2023-06-19T09:22:02;25.40;98.40
48454;DHT22;34261;55.678;12.464;2023-06-19T09:24:34;25.80;99.50
48454;DHT22;34261;55.678;12.464;2023-06-19T09:27:07;25.70;98.70
48454;DHT22;34261;55.678;12.464;2023-06-19T09:29:37;25.90;98.40
48454;DHT22;34261;55.678;12.464;2023-06-19T09:34:48;26.40;97.60
48454;DHT22;34261;55.678;12.464;2023-06-19T09:37:17;26.50;96.20
48454;DHT22;34261;55.678;12.464;2023-06-19T09:39:45;26.40;96.80
48454;DHT22;34261;55.678;12.464;2023-06-19T09:42:12;26.60;96.20
48454;DHT22;34261;55.678;12.464;2023-06-19T09:44:41;26.40;96.60
48454;DHT22;34261;55.678;12.464;2023-06-19T09:47:13;26.60;95.70
48454;DHT22;34261;55.678;12.464;2023-06-19T09:49:42;26.70;96.20
48454;DHT22;34261;55.678;12.464;2023-06-19T09:52:11;27.00;96.10
48454;DHT22;34261;55.678;12.464;2023-06-19T09:54:37;26.90;96.20
48454;DHT22;34261;55.678;12.464;2023-06-19T09:57:02;27.10;95.30
48454;DHT22;34261;55.678;12.464;2023-06-19T09:59:28;27.20;96.10
48454;DHT22;34261;55.678;12.464;2023-06-19T10:01:54;27.40;94.60
48454;DHT22;34261;55.678;12.464;2023-06-19T10:04:19;27.60;94.30
48454;DHT22;34261;55.678;12.464;2023-06-19T10:06:48;27.60;93.70
48454;DHT22;34261;55.678;12.464;2023-06-19T10:09:15;27.60;94.00
48454;DHT22;34261;55.678;12.464;2023-06-19T10:11:53;27.40;92.80
48454;DHT22;34261;55.678;12.464;2023-06-19T10:14:19;27.20;92.90
48454;DHT22;34261;55.678;12.464;2023-06-19T10:16:45;27.40;94.40
48454;DHT22;34261;55.678;12.464;2023-06-19T10:19:14;27.60;94.30
48454;DHT22;34261;55.678;12.464;2023-06-19T10:21:46;27.20;94.30
48454;DHT22;34261;55.678;12.464;2023-06-19T10:24:15;27.30;94.60
48454;DHT22;34261;55.678;12.464;2023-06-19T10:26:43;27.30;94.20
48454;DHT22;34261;55.678;12.464;2023-06-19T10:29:15;27.40;94.10
48454;DHT22;34261;55.678;12.464;2023-06-19T10:31:41;27.50;93.80
48454;DHT22;34261;55.678;12.464;2023-06-19T10:34:06;27.90;94.10
48454;DHT22;34261;55.678;12.464;2023-06-19T10:36:32;28.20;94.40
48454;DHT22;34261;55.678;12.464;2023-06-19T10:38:58;28.40;93.40
48454;DHT22;34261;55.678;12.464;2023-06-19T10:41:24;28.50;93.50
48454;DHT22;34261;55.678;12.464;2023-06-19T10:43:53;28.50;92.40
48454;DHT22;34261;55.678;12.464;2023-06-19T10:46:20;28.40;92.80
48454;DHT22;34261;55.678;12.464;2023-06-19T10:48:46;28.60;93.00
48454;DHT22;34261;55.678;12.464;2023-06-19T10:51:12;28.40;93.30
48454;DHT22;34261;55.678;12.464;2023-06-19T10:53:38;28.30;92.30
48454;DHT22;34261;55.678;12.464;2023-06-19T10:56:03;28.00;92.80
48454;DHT22;34261;55.678;12.464;2023-06-19T10:58:29;27.80;92.50
48454;DHT22;34261;55.678;12.464;2023-06-19T11:00:55;27.70;92.20
48454;DHT22;34261;55.678;12.464;2023-06-19T11:03:21;27.70;93.20
48454;DHT22;34261;55.678;12.464;2023-06-19T11:05:46;27.70;93.60
48454;DHT22;34261;55.678;12.464;2023-06-19T11:08:17;27.80;92.50
48454;DHT22;34261;55.678;12.464;2023-06-19T11:10:42;27.70;92.80
48454;DHT22;34261;55.678;12.464;2023-06-19T11:13:08;27.40;92.80
48454;DHT22;34261;55.678;12.464;2023-06-19T11:15:38;27.30;92.90
48454;DHT22;34261;55.678;12.464;2023-06-19T11:18:04;27.50;93.00
48454;DHT22;34261;55.678;12.464;2023-06-19T11:20:29;27.90;92.90
48454;DHT22;34261;55.678;12.464;2023-06-19T11:22:56;28.40;93.50
48454;DHT22;34261;55.678;12.464;2023-06-19T11:25:22;28.20;92.10
48454;DHT22;34261;55.678;12.464;2023-06-19T11:27:47;28.80;92.60
48454;DHT22;34261;55.678;12.464;2023-06-19T11:30:17;29.20;90.20
48454;DHT22;34261;55.678;12.464;2023-06-19T11:32:43;29.30;91.40
48454;DHT22;34261;55.678;12.464;2023-06-19T11:35:11;29.20;89.90
48454;DHT22;34261;55.678;12.464;2023-06-19T11:37:39;29.10;91.20
48454;DHT22;34261;55.678;12.464;2023-06-19T11:40:05;29.40;89.50
48454;DHT22;34261;55.678;12.464;2023-06-19T11:42:44;29.70;90.10
48454;DHT22;34261;55.678;12.464;2023-06-19T11:45:09;29.50;89.90
48454;DHT22;34261;55.678;12.464;2023-06-19T11:47:35;29.00;91.70
48454;DHT22;34261;55.678;12.464;2023-06-19T11:50:03;29.20;90.30
48454;DHT22;34261;55.678;12.464;2023-06-19T11:52:30;29.50;91.70
48454;DHT22;34261;55.678;12.464;2023-06-19T11:54:55;29.60;91.10
48454;DHT22;34261;55.678;12.464;2023-06-19T11:57:20;29.30;90.90
48454;DHT22;34261;55.678;12.464;2023-06-19T11:59:46;29.00;89.60
48454;DHT22;34261;55.678;12.464;2023-06-19T12:02:12;28.70;90.40
48454;DHT22;34261;55.678;12.464;2023-06-19T12:04:37;28.90;91.30
48454;DHT22;34261;55.678;12.464;2023-06-19T12:07:03;29.30;89.70
48454;DHT22;34261;55.678;12.464;2023-06-19T12:09:29;29.30;90.40
48454;DHT22;34261;55.678;12.464;2023-06-19T12:11:55;29.10;90.50
48454;DHT22;34261;55.678;12.464;2023-06-19T12:14:21;29.70;91.50
48454;DHT22;34261;55.678;12.464;2023-06-19T12:16:46;29.90;88.70
48454;DHT22;34261;55.678;12.464;2023-06-19T12:19:12;29.50;90.00
48454;DHT22;34261;55.678;12.464;2023-06-19T12:21:37;29.10;89.40
48454;DHT22;34261;55.678;12.464;2023-06-19T12:24:03;29.20;90.50
48454;DHT22;34261;55.678;12.464;2023-06-19T12:26:28;29.20;91.30
48454;DHT22;34261;55.678;12.464;2023-06-19T12:28:54;29.10;90.60
48454;DHT22;34261;55.678;12.464;2023-06-19T12:31:19;28.80;91.70
48454;DHT22;34261;55.678;12.464;2023-06-19T12:33:45;28.60;92.20
48454;DHT22;34261;55.678;12.464;2023-06-19T12:36:12;28.30;92.00
48454;DHT22;34261;55.678;12.464;2023-06-19T12:38:39;27.80;92.70
48454;DHT22;34261;55.678;12.464;2023-06-19T12:41:04;27.50;92.60
48454;DHT22;34261;55.678;12.464;2023-06-19T12:43:30;27.40;93.20
48454;DHT22;34261;55.678;12.464;2023-06-19T12:45:57;27.20;93.20
48454;DHT22;34261;55.678;12.464;2023-06-19T12:48:24;27.10;93.70
48454;DHT22;34261;55.678;12.464;2023-06-19T12:50:50;27.00;94.50
48454;DHT22;34261;55.678;12.464;2023-06-19T12:53:15;27.00;94.30
48454;DHT22;34261;55.678;12.464;2023-06-19T12:55:41;26.70;95.00
48454;DHT22;34261;55.678;12.464;2023-06-19T12:58:06;26.70;95.20
48454;DHT22;34261;55.678;12.464;2023-06-19T13:00:32;26.50;95.40
48454;DHT22;34261;55.678;12.464;2023-06-19T13:02:57;26.30;95.30
48454;DHT22;34261;55.678;12.464;2023-06-19T13:05:22;26.10;95.30
48454;DHT22;34261;55.678;12.464;2023-06-19T13:07:48;26.10;96.00
48454;DHT22;34261;55.678;12.464;2023-06-19T13:10:13;26.10;96.10
48454;DHT22;34261;55.678;12.464;2023-06-19T13:12:39;25.90;95.70
48454;DHT22;34261;55.678;12.464;2023-06-19T13:15:04;25.50;94.90
48454;DHT22;34261;55.678;12.464;2023-06-19T13:17:30;25.30;96.20
48454;DHT22;34261;55.678;12.464;2023-06-19T13:19:56;25.00;96.50
48454;DHT22;34261;55.678;12.464;2023-06-19T13:22:22;24.50;97.30
48454;DHT22;34261;55.678;12.464;2023-06-19T13:24:47;24.30;97.70
48454;DHT22;34261;55.678;12.464;2023-06-19T13:27:12;24.00;98.00
48454;DHT22;34261;55.678;12.464;2023-06-19T13:29:38;23.80;98.60
48454;DHT22;34261;55.678;12.464;2023-06-19T13:32:05;23.60;99.20
48454;DHT22;34261;55.678;12.464;2023-06-19T13:34:31;23.60;99.20
48454;DHT22;34261;55.678;12.464;2023-06-19T13:36:56;23.50;99.30
48454;DHT22;34261;55.678;12.464;2023-06-19T13:39:22;23.40;99.70
48454;DHT22;34261;55.678;12.464;2023-06-19T13:41:47;23.50;99.90
48454;DHT22;34261;55.678;12.464;2023-06-19T13:44:13;23.50;99.90
48454;DHT22;34261;55.678;12.464;2023-06-19T13:46:39;23.40;99.90
48454;DHT22;34261;55.678;12.464;2023-06-19T13:49:04;23.20;99.90
48454;DHT22;34261;55.678;12.464;2023-06-19T13:51:30;23.10;99.90
48454;DHT22;34261;55.678;12.464;2023-06-19T13:53:55;23.00;99.90
48454;DHT22;34261;55.678;12.464;2023-06-19T13:56:21;22.70;99.90
48454;DHT22;34261;55.678;12.464;2023-06-19T13:58:48;22.60;99.90
48454;DHT22;34261;55.678;12.464;2023-06-19T14:01:14;22.60;99.90
48454;DHT22;34261;55.678;12.464;2023-06-19T14:03:39;22.50;99.90
48454;DHT22;34261;55.678;12.464;2023-06-19T14:06:05;22.30;99.90
48454;DHT22;34261;55.678;12.464;2023-06-19T14:08:30;22.10;99.90
48454;DHT22;34261;55.678;12.464;2023-06-19T14:10:56;22.10;99.90
48454;DHT22;34261;55.678;12.464;2023-06-19T14:13:21;22.20;99.90
48454;DHT22;34261;55.678;12.464;2023-06-19T14:15:47;22.30;99.90
48454;DHT22;34261;55.678;12.464;2023-06-19T14:18:12;22.30;99.90
48454;DHT22;34261;55.678;12.464;2023-06-19T14:20:37;22.30;99.90
48454;DHT22;34261;55.678;12.464;2023-06-19T14:23:03;22.10;99.90
48454;DHT22;34261;55.678;12.464;2023-06-19T14:25:29;22.00;99.90
48454;DHT22;34261;55.678;12.464;2023-06-19T14:27:54;21.90;99.90
48454;DHT22;34261;55.678;12.464;2023-06-19T14:30:19;21.80;99.90
48454;DHT22;34261;55.678;12.464;2023-06-19T14:32:45;22.00;99.90
48454;DHT22;34261;55.678;12.464;2023-06-19T14:35:10;22.10;99.90
48454;DHT22;34261;55.678;12.464;2023-06-19T14:37:36;22.00;99.90
48454;DHT22;34261;55.678;12.464;2023-06-19T14:40:02;21.80;99.90
48454;DHT22;34261;55.678;12.464;2023-06-19T14:42:28;21.80;99.90
48454;DHT22;34261;55.678;12.464;2023-06-19T14:44:54;21.70;99.90
48454;DHT22;34261;55.678;12.464;2023-06-19T14:47:19;21.60;99.90
48454;DHT22;34261;55.678;12.464;2023-06-19T14:49:45;21.60;99.90
48454;DHT22;34261;55.678;12.464;2023-06-19T14:52:10;21.60;99.90
48454;DHT22;34261;55.678;12.464;2023-06-19T14:54:36;21.70;99.90
48454;DHT22;34261;55.678;12.464;2023-06-19T14:57:01;21.80;99.90
48454;DHT22;34261;55.678;12.464;2023-06-19T14:59:27;21.90;99.90
48454;DHT22;34261;55.678;12.464;2023-06-19T15:01:52;21.90;99.90
48454;DHT22;34261;55.678;12.464;2023-06-19T15:04:18;21.90;99.90
48454;DHT22;34261;55.678;12.464;2023-06-19T15:06:43;21.80;99.90
48454;DHT22;34261;55.678;12.464;2023-06-19T15:09:09;21.80;99.90
48454;DHT22;34261;55.678;12.464;2023-06-19T15:11:34;21.80;99.90